createdAt,value
2019-01-18T00:00:35.033Z,0.70
2019-01-18T00:01:35.004Z,0.73
2019-01-18T00:02:34.957Z,0.71
2019-01-18T00:03:34.950Z,0.73
2019-01-18T00:04:34.919Z,0.74
2019-01-18T00:05:34.904Z,0.73
2019-01-18T00:06:34.893Z,0.74
2019-01-18T00:07:34.853Z,0.76
2019-01-18T00:08:34.830Z,0.74
2019-01-18T00:09:34.824Z,0.73
2019-01-18T00:10:34.791Z,0.74
2019-01-18T00:11:34.915Z,0.73
2019-01-18T00:12:34.746Z,0.76
2019-01-18T00:13:34.737Z,0.74
2019-01-18T00:14:34.714Z,0.74
2019-01-18T00:15:34.689Z,0.74
2019-01-18T00:16:34.655Z,0.74
2019-01-18T00:17:34.667Z,0.74
2019-01-18T00:18:34.690Z,0.76
2019-01-18T00:19:34.593Z,0.76
2019-01-18T00:20:34.567Z,0.74
2019-01-18T00:21:34.557Z,0.74
2019-01-18T00:22:34.523Z,0.74
2019-01-18T00:23:34.517Z,0.74
2019-01-18T00:24:34.507Z,0.71
2019-01-18T00:25:34.463Z,0.71
2019-01-18T00:26:34.445Z,0.74
2019-01-18T00:27:34.428Z,0.71
2019-01-18T00:28:34.407Z,0.71
2019-01-18T00:29:34.441Z,0.70
2019-01-18T00:30:34.364Z,0.71
2019-01-18T00:31:34.331Z,0.71
2019-01-18T00:32:34.321Z,0.71
2019-01-18T00:33:34.288Z,0.70
2019-01-18T00:34:34.274Z,0.68
2019-01-18T00:35:34.271Z,0.68
2019-01-18T00:36:34.238Z,0.68
2019-01-18T00:37:34.211Z,0.70
2019-01-18T00:38:35.176Z,0.67
2019-01-18T00:39:34.164Z,0.68
2019-01-18T00:40:34.212Z,0.67
2019-01-18T00:41:34.117Z,0.64
2019-01-18T00:42:34.097Z,0.63
2019-01-18T00:43:34.085Z,0.59
2019-01-18T00:44:34.077Z,0.58
2019-01-18T00:45:34.038Z,0.55
2019-01-18T00:46:34.022Z,0.52
2019-01-18T00:47:34.000Z,0.48
2019-01-18T00:48:33.971Z,0.49
2019-01-18T00:49:33.945Z,0.49
2019-01-18T00:50:33.918Z,0.47
2019-01-18T00:51:34.056Z,0.45
2019-01-18T00:52:33.892Z,0.42
2019-01-18T00:53:33.871Z,0.40
2019-01-18T00:54:33.834Z,0.37
2019-01-18T00:55:33.810Z,0.39
2019-01-18T00:56:33.808Z,0.39
2019-01-18T00:57:33.811Z,0.36
2019-01-18T00:58:33.790Z,0.34
2019-01-18T00:59:36.424Z,0.34
2019-01-18T01:00:33.703Z,0.33
2019-01-18T01:01:33.707Z,0.30
2019-01-18T01:02:33.671Z,0.30
2019-01-18T01:03:33.679Z,0.30
2019-01-18T01:04:33.671Z,0.29
2019-01-18T01:05:33.602Z,0.30
2019-01-18T01:06:33.573Z,0.29
2019-01-18T01:07:33.595Z,0.30
2019-01-18T01:08:33.560Z,0.30
2019-01-18T01:09:33.523Z,0.29
2019-01-18T01:10:33.483Z,0.29
2019-01-18T01:11:33.468Z,0.27
2019-01-18T01:12:33.482Z,0.26
2019-01-18T01:13:33.471Z,0.27
2019-01-18T01:14:33.399Z,0.24
2019-01-18T01:15:33.378Z,0.24
2019-01-18T01:16:33.366Z,0.27
2019-01-18T01:17:33.334Z,0.27
2019-01-18T01:18:33.348Z,0.27
2019-01-18T01:19:33.301Z,0.29
2019-01-18T01:20:33.280Z,0.26
2019-01-18T01:21:33.261Z,0.24
2019-01-18T01:22:33.221Z,0.26
2019-01-18T01:23:33.239Z,0.23
2019-01-18T01:24:33.194Z,0.24
2019-01-18T01:25:33.189Z,0.26
2019-01-18T01:26:33.145Z,0.20
2019-01-18T01:27:33.132Z,0.23
2019-01-18T01:28:33.137Z,0.20
2019-01-18T01:29:33.089Z,0.23
2019-01-18T01:30:33.065Z,0.24
2019-01-18T01:31:33.023Z,0.23
2019-01-18T01:32:33.022Z,0.24
2019-01-18T01:33:33.117Z,0.24
2019-01-18T01:34:32.967Z,0.23
2019-01-18T01:35:32.947Z,0.23
2019-01-18T01:36:32.918Z,0.20
2019-01-18T01:37:32.910Z,0.19
2019-01-18T01:38:32.876Z,0.19
2019-01-18T01:39:32.870Z,0.20
2019-01-18T01:40:32.834Z,0.19
2019-01-18T01:41:32.811Z,0.19
2019-01-18T01:42:32.803Z,0.15
2019-01-18T01:43:32.772Z,0.15
2019-01-18T01:44:32.788Z,0.12
2019-01-18T01:45:32.721Z,0.13
2019-01-18T01:46:32.715Z,0.13
2019-01-18T01:47:32.676Z,0.09
2019-01-18T01:48:32.660Z,0.09
2019-01-18T01:49:32.667Z,0.06
2019-01-18T01:50:32.627Z,0.02
2019-01-18T01:51:32.599Z,0.01
2019-01-18T01:52:32.569Z,0.00
2019-01-18T01:53:32.588Z,-0.02
2019-01-18T01:54:32.530Z,-0.06
2019-01-18T01:55:32.516Z,-0.09
2019-01-18T01:56:32.518Z,-0.15
2019-01-18T01:57:32.475Z,-0.18
2019-01-18T01:58:32.442Z,-0.21
2019-01-18T01:59:32.412Z,-0.23
2019-01-18T02:00:32.435Z,-0.26
2019-01-18T02:01:32.410Z,-0.28
2019-01-18T02:02:32.356Z,-0.31
2019-01-18T02:03:32.331Z,-0.35
2019-01-18T02:04:32.306Z,-0.38
2019-01-18T02:05:32.298Z,-0.41
2019-01-18T02:06:32.301Z,-0.42
2019-01-18T02:07:32.238Z,-0.42
2019-01-18T02:08:32.232Z,-0.42
2019-01-18T02:09:32.205Z,-0.41
2019-01-18T02:10:32.184Z,-0.42
2019-01-18T02:11:32.154Z,-0.41
2019-01-18T02:12:32.174Z,-0.42
2019-01-18T02:13:32.122Z,-0.45
2019-01-18T02:14:32.087Z,-0.48
2019-01-18T02:15:32.078Z,-0.49
2019-01-18T02:16:32.053Z,-0.51
2019-01-18T02:17:32.071Z,-0.51
2019-01-18T02:18:31.999Z,-0.49
2019-01-18T02:19:31.989Z,-0.48
2019-01-18T02:20:31.966Z,-0.44
2019-01-18T02:21:31.935Z,-0.41
2019-01-18T02:22:31.986Z,-0.39
2019-01-18T02:23:31.891Z,-0.35
2019-01-18T02:24:31.869Z,-0.31
2019-01-18T02:25:32.449Z,-0.28
2019-01-18T02:26:31.822Z,-0.26
2019-01-18T02:27:31.800Z,-0.23
2019-01-18T02:28:31.817Z,-0.21
2019-01-18T02:29:31.770Z,-0.20
2019-01-18T02:30:31.747Z,-0.23
2019-01-18T02:31:31.728Z,-0.23
2019-01-18T02:32:31.695Z,-0.23
2019-01-18T02:33:31.686Z,-0.23
2019-01-18T02:34:31.723Z,-0.26
2019-01-18T02:35:31.635Z,-0.21
2019-01-18T02:36:31.607Z,-0.20
2019-01-18T02:37:31.592Z,-0.18
2019-01-18T02:38:31.565Z,-0.18
2019-01-18T02:39:31.540Z,-0.18
2019-01-18T02:40:31.555Z,-0.18
2019-01-18T02:41:31.493Z,-0.15
2019-01-18T02:42:31.545Z,-0.15
2019-01-18T02:43:31.464Z,-0.12
2019-01-18T02:44:31.430Z,-0.09
2019-01-18T02:45:31.418Z,-0.07
2019-01-18T02:46:31.407Z,-0.03
2019-01-18T02:47:31.371Z,-0.03
2019-01-18T02:48:31.357Z,-0.03
2019-01-18T02:49:31.330Z,-0.03
2019-01-18T02:50:31.302Z,-0.02
2019-01-18T02:51:31.293Z,0.01
2019-01-18T02:52:31.254Z,0.02
2019-01-18T02:53:31.240Z,0.02
2019-01-18T02:54:31.209Z,0.05
2019-01-18T02:55:31.229Z,0.08
2019-01-18T02:56:31.171Z,0.08
2019-01-18T02:57:31.156Z,0.08
2019-01-18T02:58:31.227Z,0.11
2019-01-18T02:59:31.118Z,0.12
2019-01-18T03:00:31.077Z,0.16
2019-01-18T03:01:31.273Z,0.15
2019-01-18T03:02:31.038Z,0.16
2019-01-18T03:03:31.276Z,0.16
2019-01-18T03:04:31.004Z,0.15
2019-01-18T03:05:30.984Z,0.15
2019-01-18T03:06:30.949Z,0.15
2019-01-18T03:07:30.966Z,0.13
2019-01-18T03:08:30.904Z,0.12
2019-01-18T03:09:31.032Z,0.12
2019-01-18T03:10:30.860Z,0.09
2019-01-18T03:11:30.848Z,0.08
2019-01-18T03:12:30.833Z,0.06
2019-01-18T03:13:30.797Z,0.02
2019-01-18T03:14:30.788Z,-0.02
2019-01-18T03:15:30.783Z,-0.02
2019-01-18T03:16:30.738Z,-0.02
2019-01-18T03:17:30.709Z,-0.03
2019-01-18T03:18:30.690Z,-0.05
2019-01-18T03:19:30.713Z,-0.07
2019-01-18T03:20:30.682Z,-0.07
2019-01-18T03:21:30.656Z,-0.07
2019-01-18T03:22:30.596Z,-0.09
2019-01-18T03:23:30.577Z,-0.09
2019-01-18T03:24:30.564Z,-0.07
2019-01-18T03:25:30.608Z,-0.10
2019-01-18T03:26:30.541Z,-0.09
2019-01-18T03:27:30.496Z,-0.12
2019-01-18T03:28:30.468Z,-0.13
2019-01-18T03:29:30.447Z,-0.17
2019-01-18T03:30:30.438Z,-0.13
2019-01-18T03:31:30.436Z,-0.15
2019-01-18T03:32:30.398Z,-0.15
2019-01-18T03:33:30.356Z,-0.15
2019-01-18T03:34:30.335Z,-0.15
2019-01-18T03:35:30.323Z,-0.17
2019-01-18T03:36:30.317Z,-0.18
2019-01-18T03:37:30.310Z,-0.20
2019-01-18T03:38:30.248Z,-0.23
2019-01-18T03:39:30.235Z,-0.24
2019-01-18T03:40:30.207Z,-0.24
2019-01-18T03:41:30.189Z,-0.24
2019-01-18T03:42:30.215Z,-0.28
2019-01-18T03:43:30.157Z,-0.27
2019-01-18T03:44:30.130Z,-0.26
2019-01-18T03:45:30.111Z,-0.27
2019-01-18T03:46:30.077Z,-0.27
2019-01-18T03:47:30.117Z,-0.30
2019-01-18T03:48:30.040Z,-0.30
2019-01-18T03:49:30.010Z,-0.33
2019-01-18T03:50:29.987Z,-0.33
2019-01-18T03:51:29.965Z,-0.33
2019-01-18T03:52:29.949Z,-0.35
2019-01-18T03:53:29.937Z,-0.35
2019-01-18T03:54:29.933Z,-0.36
2019-01-18T03:55:29.877Z,-0.38
2019-01-18T03:56:29.853Z,-0.41
2019-01-18T03:57:29.829Z,-0.41
2019-01-18T03:58:29.832Z,-0.42
2019-01-18T03:59:29.780Z,-0.44
2019-01-18T04:00:29.806Z,-0.45
2019-01-18T04:01:29.742Z,-0.46
2019-01-18T04:02:29.727Z,-0.48
2019-01-18T04:03:29.701Z,-0.48
2019-01-18T04:04:29.684Z,-0.46
2019-01-18T04:05:29.722Z,-0.49
2019-01-18T04:06:29.649Z,-0.54
2019-01-18T04:07:29.606Z,-0.56
2019-01-18T04:08:29.589Z,-0.56
2019-01-18T04:09:29.576Z,-0.57
2019-01-18T04:10:29.574Z,-0.60
2019-01-18T04:11:29.564Z,-0.60
2019-01-18T04:12:29.507Z,-0.62
2019-01-18T04:13:29.490Z,-0.64
2019-01-18T04:14:29.452Z,-0.67
2019-01-18T04:15:29.435Z,-0.69
2019-01-18T04:16:29.454Z,-0.70
2019-01-18T04:17:29.397Z,-0.72
2019-01-18T04:18:29.376Z,-0.74
2019-01-18T04:19:29.353Z,-0.74
2019-01-18T04:20:29.330Z,-0.75
2019-01-18T04:21:29.344Z,-0.74
2019-01-18T04:22:29.285Z,-0.74
2019-01-18T04:23:29.285Z,-0.74
2019-01-18T04:24:29.243Z,-0.77
2019-01-18T04:25:29.294Z,-0.77
2019-01-18T04:26:29.200Z,-0.77
2019-01-18T04:27:29.177Z,-0.78
2019-01-18T04:28:29.149Z,-0.77
2019-01-18T04:29:29.133Z,-0.81
2019-01-18T04:30:33.530Z,-0.84
2019-01-18T04:31:29.113Z,-0.91
2019-01-18T04:32:29.078Z,-0.93
2019-01-18T04:33:29.043Z,-0.96
2019-01-18T04:34:29.025Z,-0.96
2019-01-18T04:35:28.995Z,-0.97
2019-01-18T04:36:29.059Z,-0.99
2019-01-18T04:37:28.967Z,-1.01
2019-01-18T04:38:28.938Z,-1.04
2019-01-18T04:39:28.908Z,-1.09
2019-01-18T04:40:28.886Z,-1.11
2019-01-18T04:41:28.871Z,-1.12
2019-01-18T04:42:28.875Z,-1.15
2019-01-18T04:43:28.820Z,-1.18
2019-01-18T04:44:28.811Z,-1.19
2019-01-18T04:45:28.790Z,-1.22
2019-01-18T04:46:28.771Z,-1.24
2019-01-18T04:47:28.757Z,-1.27
2019-01-18T04:48:28.721Z,-1.27
2019-01-18T04:49:28.689Z,-1.27
2019-01-18T04:50:28.675Z,-1.29
2019-01-18T04:51:28.658Z,-1.29
2019-01-18T04:52:28.621Z,-1.29
2019-01-18T04:53:28.604Z,-1.29
2019-01-18T04:54:28.614Z,-1.25
2019-01-18T04:55:28.584Z,-1.25
2019-01-18T04:56:28.543Z,-1.24
2019-01-18T04:57:28.527Z,-1.21
2019-01-18T04:58:28.548Z,-1.21
2019-01-18T04:59:28.474Z,-1.22
2019-01-18T05:00:28.445Z,-1.22
2019-01-18T05:01:28.419Z,-1.21
2019-01-18T05:02:28.408Z,-1.18
2019-01-18T05:03:28.383Z,-1.21
2019-01-18T05:04:28.395Z,-1.19
2019-01-18T05:05:28.367Z,-1.19
2019-01-18T05:06:28.308Z,-1.18
2019-01-18T05:07:28.297Z,-1.17
2019-01-18T05:08:28.266Z,-1.17
2019-01-18T05:09:28.257Z,-1.17
2019-01-18T05:10:28.262Z,-1.18
2019-01-18T05:11:28.211Z,-1.18
2019-01-18T05:12:28.176Z,-1.18
2019-01-18T05:13:28.156Z,-1.19
2019-01-18T05:14:28.146Z,-1.19
2019-01-18T05:15:28.175Z,-1.19
2019-01-18T05:16:28.090Z,-1.19
2019-01-18T05:17:28.065Z,-1.22
2019-01-18T05:18:28.052Z,-1.25
2019-01-18T05:19:28.041Z,-1.30
2019-01-18T05:20:28.019Z,-1.32
2019-01-18T05:21:28.011Z,-1.30
2019-01-18T05:22:27.957Z,-1.33
2019-01-18T05:23:27.930Z,-1.33
2019-01-18T05:24:27.911Z,-1.33
2019-01-18T05:25:27.886Z,-1.30
2019-01-18T05:26:27.902Z,-1.24
2019-01-18T05:27:27.840Z,-1.18
2019-01-18T05:28:27.825Z,-1.14
2019-01-18T05:29:27.805Z,-1.07
2019-01-18T05:30:27.791Z,-1.06
2019-01-18T05:31:27.801Z,-1.07
2019-01-18T05:32:27.742Z,-1.14
2019-01-18T05:33:27.718Z,-1.17
2019-01-18T05:34:27.688Z,-1.17
2019-01-18T05:35:27.664Z,-1.30
2019-01-18T05:36:27.676Z,-1.36
2019-01-18T05:37:27.664Z,-1.42
2019-01-18T05:38:27.604Z,-1.40
2019-01-18T05:39:27.577Z,-1.42
2019-01-18T05:40:27.559Z,-1.45
2019-01-18T05:41:27.572Z,-1.42
2019-01-18T05:42:27.518Z,-1.43
2019-01-18T05:43:27.509Z,-1.42
2019-01-18T05:44:27.482Z,-1.39
2019-01-18T05:45:27.441Z,-1.36
2019-01-18T05:46:27.470Z,-1.36
2019-01-18T05:47:27.405Z,-1.39
2019-01-18T05:48:27.396Z,-1.42
2019-01-18T05:49:27.354Z,-1.40
2019-01-18T05:50:27.331Z,-1.38
2019-01-18T05:51:27.454Z,-1.38
2019-01-18T05:52:27.302Z,-1.40
2019-01-18T05:53:27.271Z,-1.45
2019-01-18T05:54:27.250Z,-1.50
2019-01-18T05:55:27.224Z,-1.54
2019-01-18T05:56:27.198Z,-1.60
2019-01-18T05:57:27.209Z,-1.63
2019-01-18T05:58:27.151Z,-1.66
2019-01-18T05:59:27.130Z,-1.68
2019-01-18T06:00:27.119Z,-1.69
2019-01-18T06:01:27.404Z,-1.71
2019-01-18T06:02:27.067Z,-1.72
2019-01-18T06:03:27.045Z,-1.74
2019-01-18T06:04:27.021Z,-1.72
2019-01-18T06:05:27.001Z,-1.72
2019-01-18T06:06:27.004Z,-1.72
2019-01-18T06:07:26.951Z,-1.74
2019-01-18T06:08:26.942Z,-1.74
2019-01-18T06:09:26.915Z,-1.72
2019-01-18T06:10:26.909Z,-1.74
2019-01-18T06:11:27.016Z,-1.74
2019-01-18T06:12:26.840Z,-1.76
2019-01-18T06:13:26.830Z,-1.78
2019-01-18T06:14:26.808Z,-1.79
2019-01-18T06:15:26.773Z,-1.79
2019-01-18T06:16:26.768Z,-1.78
2019-01-18T06:17:26.877Z,-1.76
2019-01-18T06:18:26.708Z,-1.76
2019-01-18T06:19:26.705Z,-1.74
2019-01-18T06:20:26.671Z,-1.76
2019-01-18T06:21:26.636Z,-1.76
2019-01-18T06:22:26.627Z,-1.79
2019-01-18T06:23:26.614Z,-1.81
2019-01-18T06:24:26.573Z,-1.87
2019-01-18T06:25:26.560Z,-1.90
2019-01-18T06:26:26.541Z,-1.90
2019-01-18T06:27:26.561Z,-1.89
2019-01-18T06:28:26.506Z,-1.86
2019-01-18T06:29:26.476Z,-1.82
2019-01-18T06:30:26.595Z,-1.79
2019-01-18T06:31:26.421Z,-1.76
2019-01-18T06:32:26.395Z,-1.75
2019-01-18T06:33:26.381Z,-1.72
2019-01-18T06:34:26.363Z,-1.68
2019-01-18T06:35:26.333Z,-1.64
2019-01-18T06:36:26.324Z,-1.66
2019-01-18T06:37:26.288Z,-1.68
2019-01-18T06:38:26.255Z,-1.71
2019-01-18T06:39:26.250Z,-1.72
2019-01-18T06:40:26.299Z,-1.75
2019-01-18T06:41:26.199Z,-1.75
2019-01-18T06:42:26.173Z,-1.76
2019-01-18T06:43:26.172Z,-1.76
2019-01-18T06:44:26.122Z,-1.76
2019-01-18T06:45:26.136Z,-1.78
2019-01-18T06:46:26.086Z,-1.78
2019-01-18T06:47:26.069Z,-1.78
2019-01-18T06:48:26.038Z,-1.79
2019-01-18T06:49:26.020Z,-1.82
2019-01-18T06:50:25.989Z,-1.84
2019-01-18T06:51:25.982Z,-1.84
2019-01-18T06:52:25.947Z,-1.82
2019-01-18T06:53:25.936Z,-1.82
2019-01-18T06:54:25.909Z,-1.81
2019-01-18T06:55:25.887Z,-1.75
2019-01-18T06:56:25.863Z,-1.75
2019-01-18T06:57:25.882Z,-1.75
2019-01-18T06:58:25.824Z,-1.76
2019-01-18T06:59:25.789Z,-1.76
2019-01-18T07:00:25.785Z,-1.76
2019-01-18T07:01:25.743Z,-1.76
2019-01-18T07:02:25.719Z,-1.71
2019-01-18T07:03:25.727Z,-1.72
2019-01-18T07:04:25.685Z,-1.72
2019-01-18T07:05:25.653Z,-1.72
2019-01-18T07:06:25.633Z,-1.72
2019-01-18T07:07:25.623Z,-1.71
2019-01-18T07:08:25.604Z,-1.69
2019-01-18T07:09:25.572Z,-1.68
2019-01-18T07:10:25.542Z,-1.66
2019-01-18T07:11:25.521Z,-1.64
2019-01-18T07:12:25.500Z,-1.63
2019-01-18T07:13:25.481Z,-1.58
2019-01-18T07:14:25.469Z,-1.58
2019-01-18T07:15:25.431Z,-1.56
2019-01-18T07:16:25.424Z,-1.54
2019-01-18T07:17:25.402Z,-1.51
2019-01-18T07:18:25.413Z,-1.48
2019-01-18T07:19:25.354Z,-1.48
2019-01-18T07:20:25.318Z,-1.50
2019-01-18T07:21:25.315Z,-1.50
2019-01-18T07:22:25.298Z,-1.50
2019-01-18T07:23:25.283Z,-1.51
2019-01-18T07:24:25.239Z,-1.51
2019-01-18T07:25:25.206Z,-1.53
2019-01-18T07:26:25.191Z,-1.53
2019-01-18T07:27:25.230Z,-1.54
2019-01-18T07:28:25.156Z,-1.54
2019-01-18T07:29:25.123Z,-1.56
2019-01-18T07:30:25.104Z,-1.58
2019-01-18T07:31:25.091Z,-1.60
2019-01-18T07:32:25.060Z,-1.60
2019-01-18T07:33:25.028Z,-1.58
2019-01-18T07:34:25.025Z,-1.56
2019-01-18T07:35:24.984Z,-1.54
2019-01-18T07:36:24.973Z,-1.54
2019-01-18T07:37:24.977Z,-1.56
2019-01-18T07:38:24.919Z,-1.57
2019-01-18T07:39:24.903Z,-1.54
2019-01-18T07:40:26.136Z,-1.54
2019-01-18T07:41:24.879Z,-1.54
2019-01-18T07:42:24.843Z,-1.53
2019-01-18T07:43:24.845Z,-1.51
2019-01-18T07:44:24.788Z,-1.51
2019-01-18T07:45:24.759Z,-1.53
2019-01-18T07:46:24.733Z,-1.53
2019-01-18T07:47:24.728Z,-1.51
2019-01-18T07:48:24.695Z,-1.53
2019-01-18T07:49:24.675Z,-1.53
2019-01-18T07:50:24.654Z,-1.53
2019-01-18T07:51:24.632Z,-1.54
2019-01-18T07:52:24.605Z,-1.56
2019-01-18T07:53:24.606Z,-1.54
2019-01-18T07:54:24.557Z,-1.53
2019-01-18T07:55:24.543Z,-1.51
2019-01-18T07:56:24.534Z,-1.46
2019-01-18T07:57:24.489Z,-1.45
2019-01-18T07:58:24.478Z,-1.43
2019-01-18T07:59:24.479Z,-1.43
2019-01-18T08:00:24.423Z,-1.43
2019-01-18T08:01:24.400Z,-1.43
2019-01-18T08:02:24.409Z,-1.39
2019-01-18T08:03:24.370Z,-1.39
2019-01-18T08:04:24.345Z,-1.38
2019-01-18T08:05:24.310Z,-1.38
2019-01-18T08:06:24.286Z,-1.39
2019-01-18T08:07:24.301Z,-1.39
2019-01-18T08:08:24.242Z,-1.38
2019-01-18T08:09:24.231Z,-1.38
2019-01-18T08:10:24.201Z,-1.36
2019-01-18T08:11:24.189Z,-1.36
2019-01-18T08:12:24.193Z,-1.36
2019-01-18T08:13:24.153Z,-1.35
2019-01-18T08:14:24.111Z,-1.35
2019-01-18T08:15:24.338Z,-1.32
2019-01-18T08:16:24.109Z,-1.30
2019-01-18T08:17:24.074Z,-1.30
2019-01-18T08:18:24.027Z,-1.30
2019-01-18T08:19:24.011Z,-1.29
2019-01-18T08:20:23.980Z,-1.29
2019-01-18T08:21:23.973Z,-1.29
2019-01-18T08:22:23.975Z,-1.30
2019-01-18T08:23:23.922Z,-1.27
2019-01-18T08:24:23.921Z,-1.27
2019-01-18T08:25:23.877Z,-1.22
2019-01-18T08:26:23.861Z,-1.19
2019-01-18T08:27:23.834Z,-1.18
2019-01-18T08:28:23.866Z,-1.17
2019-01-18T08:29:23.785Z,-1.15
2019-01-18T08:30:23.769Z,-1.15
2019-01-18T08:31:28.879Z,-1.15
2019-01-18T08:32:23.713Z,-1.15
2019-01-18T08:33:23.695Z,-1.14
2019-01-18T08:34:23.770Z,-1.12
2019-01-18T08:35:23.649Z,-1.09
2019-01-18T08:36:23.619Z,-1.07
2019-01-18T08:37:23.607Z,-1.06
2019-01-18T08:38:23.587Z,-1.06
2019-01-18T08:39:23.593Z,-1.06
2019-01-18T08:40:23.547Z,-1.07
2019-01-18T08:41:23.525Z,-1.07
2019-01-18T08:42:23.488Z,-1.07
2019-01-18T08:43:23.475Z,-1.06
2019-01-18T08:44:23.489Z,-1.04
2019-01-18T08:45:23.424Z,-1.01
2019-01-18T08:46:23.408Z,-1.01
2019-01-18T08:47:23.376Z,-0.99
2019-01-18T08:48:23.353Z,-0.97
2019-01-18T08:49:23.362Z,-0.97
2019-01-18T08:50:23.321Z,-0.94
2019-01-18T08:51:23.352Z,-0.91
2019-01-18T08:52:23.302Z,-0.87
2019-01-18T08:53:23.256Z,-0.89
2019-01-18T08:54:23.232Z,-0.87
2019-01-18T08:55:23.201Z,-0.89
2019-01-18T08:56:23.213Z,-0.91
2019-01-18T08:57:23.169Z,-0.89
2019-01-18T08:58:23.156Z,-0.91
2019-01-18T08:59:23.123Z,-0.91
2019-01-18T09:00:23.086Z,-0.93
2019-01-18T09:01:23.107Z,-0.93
2019-01-18T09:02:23.053Z,-0.93
2019-01-18T09:03:23.062Z,-0.89
2019-01-18T09:04:23.005Z,-0.85
2019-01-18T09:05:22.990Z,-0.87
2019-01-18T09:06:22.994Z,-0.82
2019-01-18T09:07:22.940Z,-0.81
2019-01-18T09:08:22.960Z,-0.80
2019-01-18T09:09:22.891Z,-0.78
2019-01-18T09:10:22.883Z,-0.75
2019-01-18T09:11:23.169Z,-0.70
2019-01-18T09:12:22.825Z,-0.67
2019-01-18T09:13:22.812Z,-0.67
2019-01-18T09:14:22.780Z,-0.69
2019-01-18T09:15:22.769Z,-0.67
2019-01-18T09:16:22.736Z,-0.64
2019-01-18T09:17:22.747Z,-0.64
2019-01-18T09:18:22.704Z,-0.60
2019-01-18T09:19:22.683Z,-0.60
2019-01-18T09:20:22.661Z,-0.60
2019-01-18T09:21:22.717Z,-0.57
2019-01-18T09:22:22.606Z,-0.54
2019-01-18T09:23:22.590Z,-0.54
2019-01-18T09:24:22.564Z,-0.56
2019-01-18T09:25:22.533Z,-0.56
2019-01-18T09:26:22.514Z,-0.54
2019-01-18T09:27:22.533Z,-0.51
2019-01-18T09:28:22.481Z,-0.51
2019-01-18T09:29:22.455Z,-0.51
2019-01-18T09:30:22.430Z,-0.49
2019-01-18T09:31:22.433Z,-0.48
2019-01-18T09:32:22.399Z,-0.45
2019-01-18T09:33:22.400Z,-0.44
2019-01-18T09:34:22.347Z,-0.42
2019-01-18T09:35:22.326Z,-0.41
2019-01-18T09:36:22.294Z,-0.41
2019-01-18T09:37:22.279Z,-0.38
2019-01-18T09:38:25.156Z,-0.36
2019-01-18T09:39:22.438Z,-0.35
2019-01-18T09:40:22.221Z,-0.33
2019-01-18T09:41:22.236Z,-0.33
2019-01-18T09:42:22.179Z,-0.33
2019-01-18T09:43:22.152Z,-0.30
2019-01-18T09:44:22.125Z,-0.28
2019-01-18T09:45:22.100Z,-0.26
2019-01-18T09:46:22.115Z,-0.24
2019-01-18T09:47:22.084Z,-0.23
2019-01-18T09:48:22.029Z,-0.20
2019-01-18T09:49:22.021Z,-0.18
2019-01-18T09:50:22.003Z,-0.18
2019-01-18T09:51:21.975Z,-0.17
2019-01-18T09:52:22.009Z,-0.15
2019-01-18T09:53:21.938Z,-0.12
2019-01-18T09:54:21.917Z,-0.12
2019-01-18T09:55:21.882Z,-0.09
2019-01-18T09:56:21.863Z,-0.07
2019-01-18T09:57:21.849Z,-0.06
2019-01-18T09:58:21.833Z,-0.05
2019-01-18T09:59:21.788Z,-0.05
2019-01-18T10:00:21.783Z,-0.03
2019-01-18T10:01:21.784Z,-0.02
2019-01-18T10:02:21.728Z,0.00
2019-01-18T10:03:21.716Z,0.01
2019-01-18T10:04:21.685Z,0.02
2019-01-18T10:05:21.661Z,0.02
2019-01-18T10:06:21.675Z,0.05
2019-01-18T10:07:21.632Z,0.08
2019-01-18T10:08:21.600Z,0.09
2019-01-18T10:09:21.580Z,0.13
2019-01-18T10:10:21.559Z,0.18
2019-01-18T10:11:21.543Z,0.19
2019-01-18T10:12:21.534Z,0.19
2019-01-18T10:13:21.501Z,0.16
2019-01-18T10:14:21.469Z,0.18
2019-01-18T10:15:21.454Z,0.18
2019-01-18T10:16:21.426Z,0.19
2019-01-18T10:17:21.415Z,0.23
2019-01-18T10:18:21.385Z,0.24
2019-01-18T10:19:21.364Z,0.26
2019-01-18T10:20:21.344Z,0.31
2019-01-18T10:21:21.352Z,0.36
2019-01-18T10:22:21.284Z,0.39
2019-01-18T10:23:21.264Z,0.40
2019-01-18T10:24:21.245Z,0.44
2019-01-18T10:25:21.223Z,0.47
2019-01-18T10:26:21.233Z,0.49
2019-01-18T10:27:23.942Z,0.51
2019-01-18T10:28:21.168Z,0.52
2019-01-18T10:29:21.139Z,0.52
2019-01-18T10:30:21.126Z,0.55
2019-01-18T10:31:21.150Z,0.56
2019-01-18T10:32:21.073Z,0.56
2019-01-18T10:33:21.066Z,0.56
2019-01-18T10:34:21.036Z,0.58
2019-01-18T10:35:21.016Z,0.58
2019-01-18T10:36:20.989Z,0.59
2019-01-18T10:37:21.002Z,0.63
2019-01-18T10:38:20.960Z,0.67
2019-01-18T10:39:20.932Z,0.67
2019-01-18T10:40:20.912Z,0.68
2019-01-18T10:41:20.891Z,0.70
2019-01-18T10:42:20.859Z,0.71
2019-01-18T10:43:20.842Z,0.73
2019-01-18T10:44:20.813Z,0.76
2019-01-18T10:45:20.854Z,0.77
2019-01-18T10:46:20.770Z,0.77
2019-01-18T10:47:20.748Z,0.81
2019-01-18T10:48:20.774Z,0.81
2019-01-18T10:49:20.729Z,0.81
2019-01-18T10:50:20.691Z,0.81
2019-01-18T10:51:20.676Z,0.82
2019-01-18T10:52:20.654Z,0.85
2019-01-18T10:53:20.635Z,0.86
2019-01-18T10:54:20.654Z,0.88
2019-01-18T10:55:20.581Z,0.88
2019-01-18T10:56:20.558Z,0.91
2019-01-18T10:57:20.548Z,0.92
2019-01-18T10:58:20.528Z,0.94
2019-01-18T10:59:20.492Z,0.94
2019-01-18T11:00:20.517Z,0.92
2019-01-18T11:01:20.461Z,0.91
2019-01-18T11:02:20.434Z,0.92
2019-01-18T11:03:20.406Z,0.91
2019-01-18T11:04:20.403Z,0.92
2019-01-18T11:05:20.425Z,0.92
2019-01-18T11:06:20.341Z,0.94
2019-01-18T11:07:20.321Z,1.02
2019-01-18T11:08:20.307Z,1.02
2019-01-18T11:09:20.291Z,1.07
2019-01-18T11:10:20.264Z,1.10
2019-01-18T11:11:20.243Z,1.13
2019-01-18T11:12:20.227Z,1.13
2019-01-18T11:13:20.206Z,1.14
2019-01-18T11:14:20.174Z,1.16
2019-01-18T11:15:20.163Z,1.16
2019-01-18T11:16:20.162Z,1.18
2019-01-18T11:17:20.118Z,1.21
2019-01-18T11:18:20.093Z,1.22
2019-01-18T11:19:20.077Z,1.24
2019-01-18T11:20:20.062Z,1.27
2019-01-18T11:21:20.063Z,1.27
2019-01-18T11:22:20.004Z,1.30
2019-01-18T11:23:20.139Z,1.34
2019-01-18T11:24:19.975Z,1.34
2019-01-18T11:25:19.951Z,1.34
2019-01-18T11:26:19.932Z,1.36
2019-01-18T11:27:19.899Z,1.40
2019-01-18T11:28:19.875Z,1.43
2019-01-18T11:29:19.895Z,1.42
2019-01-18T11:30:19.841Z,1.45
2019-01-18T11:31:23.329Z,1.49
2019-01-18T11:32:19.791Z,1.53
2019-01-18T11:33:19.788Z,1.57
2019-01-18T11:34:19.897Z,1.67
2019-01-18T11:35:19.738Z,1.78
2019-01-18T11:36:19.723Z,1.88
2019-01-18T11:37:19.697Z,2.03
2019-01-18T11:38:19.676Z,2.07
2019-01-18T11:39:19.658Z,2.19
2019-01-18T11:40:19.721Z,2.19
2019-01-18T11:41:19.605Z,2.21
2019-01-18T11:42:19.597Z,2.18
2019-01-18T11:43:19.564Z,2.16
2019-01-18T11:44:19.551Z,2.18
2019-01-18T11:45:19.520Z,2.16
2019-01-18T11:46:19.513Z,2.16
2019-01-18T11:47:19.476Z,2.18
2019-01-18T11:48:19.465Z,2.16
2019-01-18T11:49:19.439Z,2.14
2019-01-18T11:50:19.433Z,2.10
2019-01-18T11:51:19.423Z,2.04
2019-01-18T11:52:19.387Z,1.98
2019-01-18T11:53:19.361Z,1.97
2019-01-18T11:54:19.350Z,1.89
2019-01-18T11:55:19.394Z,1.82
2019-01-18T11:56:19.311Z,1.78
2019-01-18T11:57:19.287Z,1.79
2019-01-18T11:58:19.252Z,1.76
2019-01-18T11:59:19.233Z,1.78
2019-01-18T12:00:19.224Z,1.84
2019-01-18T12:01:19.230Z,1.86
2019-01-18T12:02:22.203Z,1.84
2019-01-18T12:03:19.154Z,1.88
2019-01-18T12:04:19.137Z,1.89
2019-01-18T12:05:19.114Z,1.88
2019-01-18T12:06:19.145Z,1.85
2019-01-18T12:07:19.079Z,1.84
2019-01-18T12:08:19.047Z,1.84
2019-01-18T12:09:19.027Z,1.85
2019-01-18T12:10:19.019Z,1.86
2019-01-18T12:11:18.991Z,1.88
2019-01-18T12:12:19.012Z,1.89
2019-01-18T12:13:18.955Z,1.93
2019-01-18T12:14:18.940Z,1.95
2019-01-18T12:15:18.905Z,1.93
2019-01-18T12:16:18.895Z,1.98
2019-01-18T12:17:18.888Z,2.03
2019-01-18T12:18:18.865Z,2.01
2019-01-18T12:19:18.833Z,1.97
2019-01-18T12:20:18.819Z,1.98
2019-01-18T12:21:18.827Z,1.97
2019-01-18T12:22:18.768Z,2.00
2019-01-18T12:23:18.739Z,2.00
2019-01-18T12:24:18.755Z,2.00
2019-01-18T12:25:18.699Z,1.98
2019-01-18T12:26:18.679Z,1.98
2019-01-18T12:27:18.655Z,1.98
2019-01-18T12:28:18.652Z,1.98
2019-01-18T12:29:18.624Z,1.98
2019-01-18T12:30:18.664Z,2.03
2019-01-18T12:31:18.581Z,2.07
2019-01-18T12:32:18.562Z,2.15
2019-01-18T12:33:18.540Z,2.21
2019-01-18T12:34:18.515Z,2.26
2019-01-18T12:35:18.627Z,2.34
2019-01-18T12:36:18.474Z,2.39
2019-01-18T12:37:18.455Z,2.39
2019-01-18T12:38:18.444Z,2.43
2019-01-18T12:39:18.426Z,2.43
2019-01-18T12:40:18.393Z,2.44
2019-01-18T12:41:18.402Z,2.54
2019-01-18T12:42:18.347Z,2.58
2019-01-18T12:43:18.323Z,2.64
2019-01-18T12:44:18.312Z,2.62
2019-01-18T12:45:18.301Z,2.61
2019-01-18T12:46:18.288Z,2.62
2019-01-18T12:47:18.252Z,2.62
2019-01-18T12:48:18.230Z,2.65
2019-01-18T12:49:18.209Z,2.65
2019-01-18T12:50:18.192Z,2.61
2019-01-18T12:51:18.231Z,2.55
2019-01-18T12:52:18.150Z,2.55
2019-01-18T12:53:18.136Z,2.55
2019-01-18T12:54:18.116Z,2.62
2019-01-18T12:55:18.305Z,2.64
2019-01-18T12:56:18.063Z,2.72
2019-01-18T12:57:18.077Z,2.76
2019-01-18T12:58:18.035Z,2.79
2019-01-18T12:59:18.016Z,2.80
2019-01-18T13:00:17.984Z,2.75
2019-01-18T13:01:17.968Z,2.69
2019-01-18T13:02:17.989Z,2.62